Briefing drone pour Arpajon-sur-cere

Rechercher une autre localisation

Conditions de vol :


Nous sommes le : Mardi 27 septembre 2022
Il est 19:58 UTC (21:58 LT)

Lever de soleil : 05:16 UTC (07:16 LT)
Coucher de soleil : 18:05 UTC (20:05 LT)

Météo

L'essentiel des conditions de vol

VIGILANCE MÉTÉO FRANCE - Cantal (15)
Pas de vigilances particulieres
METAR de LFLW
LFLW 271930Z AUTO 27004KT 240V320 5000 -DZ BR OVC005 11/10 Q1012

Date d'émission: 27/09/2022
Heure d'émission: 19:30 UTC
Vent: 270° (variable du 240° au 320°) pour 4 KT (7 km/h)
Visibilité horizontale: 5000 m
Plafond :
- Couvert à 500ft (152m)
Température: 11 °C
Point de rosée: 10 °C
Humidité: 94%
Pression (QNH): 1012 hPa
Conditions: Faible Bruine
Prévision 24h pour Aurillac (1 km)
Vent : 271° pour 4 KT (15 km/h)
Temperature Maxi: 12 °C
Temperature Min: 12 °C
Humidité : 97%
Condition : Légère pluie



Warning: count(): Parameter must be an array or an object that implements Countable in /homepages/6/d509196549/htdocs/droneoxygene/briefing.php on line 743
WEBCAM POUR ARPAJON-SUR-CERE

Réglementation

Voler en sécurité

CARTES AERONAUTIQUE 1/500.000
CARTE AZBA (Reseau basse altitude)
CARTES VAC (LFLW)
SUP AIP




Chargement des AIP...
NOTAM (ARPAJON-SUR-CERE + Terrain à proximité / FIR )




Chargement des NOTAMS...
CONTACT PREFECTURE 15


Avertissement : Les données mises à disposition sont indicatives. Oxygène Drone ne pourra être tenu responsable de dégâts causés aux biens et aux personnes.